Time;durP1;ratioP1;P1;durP2;ratioP2;P2;SDS_P1;SDS_P2;PMS_P1;PMS_P2;Temp;Humidity;BMP_temperature;BMP_pressure;BME280_temperature;BME280_humidity;BME280_pressure;Samples;Min_cycle;Max_cycle;Signal;HPM_P1;HPM_P2
2022/04/01 00:01:05;;;;;;;0.30;0.30;;;;;;;0.71;100.00;100165.84;5048447;28;20501;-80
2022/04/01 00:03:38;;;;;;;0.20;0.20;;;;;;;0.73;100.00;100160.25;5064792;28;20052;-80
2022/04/01 00:06:11;;;;;;;0.20;0.20;;;;;;;0.80;100.00;100164.50;5040756;28;20052;-80
2022/04/01 00:08:45;;;;;;;0.20;0.20;;;;;;;0.80;100.00;100166.34;5047753;28;20072;-80
2022/04/01 00:11:20;;;;;;;0.20;0.20;;;;;;;0.77;100.00;100167.59;5046658;28;20054;-80
2022/04/01 00:13:48;;;;;;;0.20;0.20;;;;;;;0.72;100.00;100166.66;5053697;28;20040;-80
2022/04/01 00:16:21;;;;;;;0.20;0.20;;;;;;;0.74;100.00;100162.72;5036575;28;20053;-80
2022/04/01 00:18:55;;;;;;;0.30;0.30;;;;;;;0.70;100.00;100156.16;5038620;28;20049;-80
2022/04/01 00:21:23;;;;;;;0.22;0.22;;;;;;;0.69;100.00;100159.88;5051862;28;20411;-81
2022/04/01 00:23:56;;;;;;;0.28;0.28;;;;;;;0.62;100.00;100140.41;5053027;28;20482;-80
2022/04/01 00:26:26;;;;;;;0.40;0.30;;;;;;;0.71;100.00;100155.13;5051196;28;20068;-80
2022/04/01 00:29:00;;;;;;;0.22;0.22;;;;;;;0.68;100.00;100152.91;5055276;28;20397;-80
2022/04/01 00:31:28;;;;;;;0.20;0.20;;;;;;;0.65;100.00;100150.69;5048262;28;20061;-80
2022/04/01 00:37:02;;;;;;;0.20;0.20;;;;;;;0.72;100.00;100161.28;5088764;27;20388;-81
2022/04/01 00:39:35;;;;;;;0.20;0.20;;;;;;;0.76;100.00;100160.63;5069229;28;20055;-80
2022/04/01 00:42:08;;;;;;;0.30;0.20;;;;;;;0.80;100.00;100160.97;5068592;28;20044;-81
2022/04/01 00:44:42;;;;;;;0.20;0.20;;;;;;;0.77;100.00;100159.56;5066554;28;20055;-81
2022/04/01 00:47:16;;;;;;;0.20;0.20;;;;;;;0.67;100.00;100159.31;5075585;28;20053;-80
2022/04/01 00:49:50;;;;;;;0.20;0.20;;;;;;;0.78;100.00;100149.69;5079602;28;20049;-80
2022/04/01 00:52:24;;;;;;;0.20;0.20;;;;;;;0.76;100.00;100147.25;5069712;28;20041;-81
2022/04/01 00:54:53;;;;;;;0.30;0.30;;;;;;;0.62;100.00;100154.66;5062036;28;20057;-81
2022/04/01 00:57:27;;;;;;;0.20;0.20;;;;;;;0.63;100.00;100163.50;5071106;28;20514;-80
2022/04/01 01:00:00;;;;;;;0.30;0.30;;;;;;;0.70;100.00;100150.81;5074743;28;20057;-80
2022/04/01 01:02:34;;;;;;;0.20;0.20;;;;;;;0.70;100.00;100150.00;5067205;28;20052;-81
2022/04/01 01:05:03;;;;;;;0.20;0.20;;;;;;;0.65;100.00;100150.69;5066331;28;20500;-80
2022/04/01 01:07:40;;;;;;;0.20;0.20;;;;;;;0.65;100.00;100161.41;5065863;28;20048;-80
2022/04/01 01:10:16;;;;;;;0.30;0.30;;;;;;;0.72;100.00;100154.09;5067141;28;20055;-80
2022/04/01 01:12:50;;;;;;;0.20;0.20;;;;;;;0.67;100.00;100157.44;5068953;28;20408;-80
2022/04/01 01:15:26;;;;;;;0.30;0.30;;;;;;;0.73;100.00;100160.25;5066268;28;20055;-80
2022/04/01 01:17:54;;;;;;;0.30;0.30;;;;;;;0.59;100.00;100159.63;5072323;28;20507;-81
2022/04/01 01:20:24;;;;;;;0.20;0.20;;;;;;;0.75;100.00;100156.31;5084215;28;20048;-81
2022/04/01 01:22:57;;;;;;;0.20;0.20;;;;;;;0.65;100.00;100150.69;5068970;28;20405;-82
2022/04/01 01:25:27;;;;;;;0.20;0.20;;;;;;;0.67;100.00;100148.59;5069458;28;20053;-80
2022/04/01 01:28:00;;;;;;;0.20;0.20;;;;;;;0.72;100.00;100147.91;5062627;28;20048;-80
2022/04/01 01:30:33;;;;;;;0.20;0.20;;;;;;;0.66;100.00;100137.09;5065012;28;20049;-80
2022/04/01 01:33:06;;;;;;;0.20;0.20;;;;;;;0.72;100.00;100147.91;5070510;28;20053;-81
2022/04/01 01:35:40;;;;;;;0.20;0.20;;;;;;;0.62;100.00;100149.28;5080225;28;20051;-79
2022/04/01 01:38:18;;;;;;;0.30;0.30;;;;;;;0.54;100.00;100136.22;5057353;28;20044;-80
2022/04/01 01:40:53;;;;;;;0.30;0.20;;;;;;;0.64;100.00;100149.06;5063905;28;20048;-80
2022/04/01 01:43:27;;;;;;;0.30;0.30;;;;;;;0.63;100.00;100142.06;5056890;28;20505;-80
2022/04/01 01:46:01;;;;;;;0.20;0.20;;;;;;;0.64;100.00;100141.84;5057568;28;20045;-80
2022/04/01 01:48:35;;;;;;;0.20;0.20;;;;;;;0.61;100.00;100142.28;5045688;28;20045;-81
2022/04/01 01:56:47;;;;;;;0.40;0.17;;;;;;;0.53;100.00;100145.28;5053965;28;20401;-80
2022/04/01 01:59:20;;;;;;;0.17;0.17;;;;;;;0.49;100.00;100160.97;5062856;28;20060;-80
2022/04/01 02:01:53;;;;;;;0.55;0.30;;;;;;;0.58;100.00;100152.63;5051867;28;20056;-81
2022/04/01 02:04:26;;;;;;;0.20;0.20;;;;;;;0.46;100.00;100145.38;5055975;28;20678;-80
2022/04/01 02:06:55;;;;;;;0.20;0.20;;;;;;;0.51;100.00;100144.69;5069383;28;20060;-80
2022/04/01 02:09:28;;;;;;;0.30;0.30;;;;;;;0.50;100.00;100148.44;5048091;28;20053;-81
2022/04/01 02:12:03;;;;;;;0.20;0.20;;;;;;;0.41;100.00;100139.88;5049791;28;20064;-80
2022/04/01 02:14:36;;;;;;;0.20;0.20;;;;;;;0.47;100.00;100138.97;5058003;28;20064;-80
2022/04/01 02:17:10;;;;;;;0.20;0.20;;;;;;;0.45;100.00;100141.06;5053891;28;20040;-81
2022/04/01 02:19:44;;;;;;;0.25;0.25;;;;;;;0.38;100.00;100140.31;5043145;28;20057;-80
2022/04/01 02:22:17;;;;;;;0.20;0.20;;;;;;;0.33;100.00;100129.47;5053722;28;20045;-80
2022/04/01 02:24:51;;;;;;;0.20;0.20;;;;;;;0.44;100.00;100131.41;5052065;28;20049;-81
2022/04/01 02:27:27;;;;;;;0.63;0.20;;;;;;;0.41;100.00;100142.53;5052055;28;20497;-81
2022/04/01 02:30:01;;;;;;;0.20;0.20;;;;;;;0.40;100.00;100157.00;5051856;28;20048;-80
2022/04/01 02:33:12;;;;;;;0.20;0.20;;;;;;;0.26;100.00;100145.63;5059692;28;20067;-81
2022/04/01 02:35:44;;;;;;;0.28;0.20;;;;;;;0.28;100.00;100148.91;5056863;28;20052;-81
2022/04/01 02:38:12;;;;;;;0.20;0.20;;;;;;;0.29;100.00;100150.53;5051079;28;20167;-81
2022/04/01 02:40:45;;;;;;;0.30;0.30;;;;;;;0.28;100.00;100142.72;5057145;28;20071;-81
2022/04/01 02:43:20;;;;;;;0.20;0.20;;;;;;;0.09;100.00;100128.53;5052380;28;20037;-80
2022/04/01 02:45:53;;;;;;;0.40;0.30;;;;;;;0.24;100.00;100144.22;5047694;28;20501;-81
2022/04/01 02:48:27;;;;;;;0.65;0.30;;;;;;;0.26;100.00;100147.47;5050204;28;20071;-80
2022/04/01 02:51:36;;;;;;;0.30;0.30;;;;;;;0.30;100.00;100145.97;5050133;28;20052;-81
2022/04/01 02:54:14;;;;;;;0.20;0.20;;;;;;;0.37;100.00;100153.94;5058519;28;20064;-81
2022/04/01 02:56:48;;;;;;;0.20;0.20;;;;;;;0.26;100.00;100148.31;5049456;28;20509;-79
2022/04/01 02:59:23;;;;;;;0.22;0.22;;;;;;;0.28;100.00;100159.59;5060748;28;20059;-80
2022/04/01 03:01:57;;;;;;;0.20;0.20;;;;;;;0.19;100.00;100158.25;5051116;28;20053;-80
2022/04/01 03:04:30;;;;;;;0.30;0.30;;;;;;;0.26;100.00;100144.81;5049308;28;20050;-80
2022/04/01 03:07:04;;;;;;;0.20;0.20;;;;;;;0.26;100.00;100152.84;5055494;28;20048;-80
2022/04/01 03:09:37;;;;;;;0.30;0.30;;;;;;;0.22;100.00;100160.50;5046313;28;20047;-80
2022/04/01 03:12:12;;;;;;;0.20;0.20;;;;;;;0.16;100.00;100151.50;5056822;28;20056;-82
2022/04/01 03:14:52;;;;;;;0.20;0.20;;;;;;;0.11;100.00;100145.19;5052015;28;20048;-82
2022/04/01 03:17:45;;;;;;;0.15;0.15;;;;;;;0.26;100.00;100160.84;5047888;28;20053;-79
2022/04/01 03:20:29;;;;;;;0.30;0.30;;;;;;;0.19;100.00;100166.28;5058763;28;20053;-80
2022/04/01 03:23:04;;;;;;;0.20;0.20;;;;;;;0.16;100.00;100166.75;5056611;28;20728;-81
2022/04/01 03:25:44;;;;;;;0.30;0.30;;;;;;;0.27;100.00;100168.66;5052146;28;20040;-80
2022/04/01 03:28:27;;;;;;;0.20;0.20;;;;;;;0.15;100.00;100159.75;5058937;28;20049;-81
2022/04/01 03:31:06;;;;;;;0.30;0.30;;;;;;;0.19;100.00;100174.31;5050853;28;20052;-80
2022/04/01 03:33:39;;;;;;;0.20;0.20;;;;;;;0.23;100.00;100175.50;5051758;28;20056;-81
2022/04/01 03:36:14;;;;;;;0.30;0.30;;;;;;;0.13;100.00;100164.53;5052229;28;20049;-81
2022/04/01 03:38:48;;;;;;;0.30;0.30;;;;;;;0.16;100.00;100177.44;5047217;28;20044;-82
2022/04/01 03:41:42;;;;;;;0.22;0.22;;;;;;;0.23;100.00;100178.19;5039874;28;20045;-80
2022/04/01 03:44:11;;;;;;;0.22;0.22;;;;;;;0.12;100.00;100166.34;5059841;28;20056;-82
2022/04/01 03:46:55;;;;;;;0.20;0.20;;;;;;;0.21;100.00;100163.38;5056379;28;20051;-80
2022/04/01 03:49:32;;;;;;;0.20;0.20;;;;;;;0.15;100.00;100178.47;5044309;28;20064;-82
2022/04/01 03:52:07;;;;;;;0.30;0.30;;;;;;;0.28;100.00;100182.88;5051256;28;20056;-80
2022/04/01 03:54:43;;;;;;;0.20;0.20;;;;;;;0.29;100.00;100187.16;5053720;28;20504;-80
2022/04/01 03:57:41;;;;;;;0.20;0.20;;;;;;;0.18;100.00;100191.44;5047988;28;20085;-79
2022/04/01 04:00:33;;;;;;;0.20;0.20;;;;;;;0.30;100.00;100181.63;5062436;28;20071;-79
2022/04/01 04:03:09;;;;;;;0.30;0.30;;;;;;;0.20;100.00;100175.16;5049129;28;20401;-80
2022/04/01 04:05:39;;;;;;;0.20;0.20;;;;;;;0.23;100.00;100198.78;5049464;28;20044;-81
2022/04/01 04:08:12;;;;;;;0.20;0.20;;;;;;;0.18;100.00;100191.44;5050484;28;20056;-81
2022/04/01 04:10:48;;;;;;;0.20;0.20;;;;;;;0.21;100.00;100184.78;5052839;28;20045;-81
2022/04/01 04:13:45;;;;;;;0.20;0.20;;;;;;;0.26;100.00;100201.00;5044265;28;20076;-80
2022/04/01 04:16:19;;;;;;;0.20;0.20;;;;;;;0.26;100.00;100203.69;5048651;28;20049;-80
2022/04/01 04:19:01;;;;;;;0.20;0.20;;;;;;;0.22;100.00;100197.97;5050487;28;20033;-79
2022/04/01 04:21:42;;;;;;;0.30;0.30;;;;;;;0.34;100.00;100201.50;5051142;28;20068;-81
2022/04/01 04:24:20;;;;;;;0.20;0.20;;;;;;;0.36;100.00;100208.50;5058878;28;20060;-80
2022/04/01 04:26:51;;;;;;;0.28;0.28;;;;;;;0.21;100.00;100206.19;5056904;28;20059;-79
2022/04/01 04:29:27;;;;;;;0.30;0.30;;;;;;;0.34;100.00;100227.47;5049257;28;20071;-81
2022/04/01 04:32:22;;;;;;;0.20;0.20;;;;;;;0.27;100.00;100218.72;5051671;28;20052;-79
2022/04/01 04:35:00;;;;;;;0.30;0.30;;;;;;;0.40;100.00;100226.59;5058263;28;20045;-79
2022/04/01 04:37:41;;;;;;;0.40;0.40;;;;;;;0.27;100.00;100218.72;5042030;28;20056;-80
2022/04/01 04:40:19;;;;;;;0.20;0.20;;;;;;;0.37;100.00;100228.88;5057649;28;20516;-80
2022/04/01 04:43:02;;;;;;;0.30;0.30;;;;;;;0.34;100.00;100227.47;5051119;28;20041;-81
2022/04/01 04:45:36;;;;;;;0.30;0.30;;;;;;;0.27;100.00;100227.53;5049286;28;20053;-80
2022/04/01 04:48:14;;;;;;;0.20;0.20;;;;;;;0.30;100.00;100223.59;5050076;28;20052;-80
2022/04/01 04:50:49;;;;;;;0.30;0.30;;;;;;;0.36;100.00;100232.59;5050374;28;20052;-80
2022/04/01 04:53:24;;;;;;;0.30;0.30;;;;;;;0.33;100.00;100237.38;5048507;28;20037;-80
2022/04/01 04:55:59;;;;;;;0.22;0.22;;;;;;;0.32;100.00;100230.38;5055335;28;20060;-81
2022/04/01 04:58:32;;;;;;;0.30;0.30;;;;;;;0.44;100.00;100243.84;5053305;28;20529;-80
2022/04/01 05:01:04;;;;;;;0.85;0.32;;;;;;;0.42;100.00;100247.78;5045618;28;20064;-80
2022/04/01 05:03:56;;;;;;;;;;;;;;;0.42;100.00;100253.94;5066112;28;20037;-79
2022/04/01 05:06:39;;;;;;;0.30;0.30;;;;;;;0.53;100.00;100259.63;5050490;28;19925;-80
2022/04/01 05:09:46;;;;;;;0.20;0.20;;;;;;;0.49;100.00;100259.22;5051251;28;20060;-80
2022/04/01 05:12:25;;;;;;;0.30;0.30;;;;;;;0.48;100.00;100263.78;5049120;28;20056;-80
2022/04/01 05:15:19;;;;;;;0.30;0.30;;;;;;;0.53;100.00;100259.63;5054434;28;20421;-80
2022/04/01 05:17:56;;;;;;;0.28;0.28;;;;;;;0.50;100.00;100272.38;5048581;28;20417;-79
2022/04/01 05:20:35;;;;;;;;;;;;;;;0.61;100.00;100268.16;5050683;28;20051;-81
2022/04/01 05:23:12;;;;;;;0.20;0.20;;;;;;;0.68;100.00;100271.56;5057701;28;19925;-80
2022/04/01 05:25:55;;;;;;;0.40;0.30;;;;;;;0.61;100.00;100278.88;5046190;28;20489;-79
2022/04/01 05:28:51;;;;;;;0.25;0.25;;;;;;;0.58;100.00;100294.53;5047862;28;20056;-79
2022/04/01 05:31:35;;;;;;;0.20;0.20;;;;;;;0.69;100.00;100288.44;5055927;28;20053;-81
2022/04/01 05:34:11;;;;;;;0.25;0.25;;;;;;;0.66;100.00;100284.38;5060453;28;20060;-79
2022/04/01 05:36:40;;;;;;;0.30;0.30;;;;;;;0.69;100.00;100285.75;5054601;28;20045;-80
2022/04/01 05:39:17;;;;;;;0.30;0.30;;;;;;;0.70;100.00;100287.41;5053615;28;20044;-81
2022/04/01 05:41:57;;;;;;;0.28;0.28;;;;;;;0.53;100.00;100279.16;5054968;28;20053;-79
2022/04/01 05:44:27;;;;;;;0.30;0.30;;;;;;;0.79;100.00;100299.47;5038479;28;20053;-80
2022/04/01 05:46:56;;;;;;;0.30;0.30;;;;;;;0.67;100.00;100290.53;5053867;28;20509;-80
2022/04/01 05:49:26;;;;;;;0.32;0.32;;;;;;;0.74;100.00;100299.31;5048719;28;20069;-81
2022/04/01 05:51:55;;;;;;;0.30;0.30;;;;;;;0.85;100.00;100303.91;5047108;28;20501;-79
2022/04/01 05:54:34;;;;;;;0.30;0.30;;;;;;;0.78;100.00;100300.50;5053469;28;20083;-80
2022/04/01 05:57:04;;;;;;;0.40;0.40;;;;;;;0.80;100.00;100302.94;5059327;28;20052;-80
2022/04/01 05:59:33;;;;;;;0.30;0.30;;;;;;;0.87;100.00;100310.91;5050911;28;20044;-79
2022/04/01 06:02:22;;;;;;;0.30;0.30;;;;;;;0.88;100.00;100315.22;5050778;28;20727;-80
2022/04/01 06:05:08;;;;;;;0.30;0.30;;;;;;;0.92;100.00;100311.06;5049293;28;20053;-80
2022/04/01 06:07:49;;;;;;;0.20;0.20;;;;;;;1.00;100.00;100316.13;5039479;28;20045;-80
2022/04/01 06:10:24;;;;;;;0.30;0.30;;;;;;;1.04;100.00;100313.78;5045815;28;20049;-80
2022/04/01 06:13:28;;;;;;;0.30;0.30;;;;;;;1.04;100.00;100309.25;5052956;28;20064;-81
2022/04/01 06:16:27;;;;;;;0.30;0.30;;;;;;;1.08;100.00;100313.13;5045937;28;20076;-81
2022/04/01 06:19:22;;;;;;;0.30;0.30;;;;;;;1.09;100.00;100319.28;5041786;28;20770;-80
2022/04/01 06:22:03;;;;;;;0.30;0.30;;;;;;;1.22;100.00;100323.69;5048855;28;20044;-81
2022/04/01 06:24:46;;;;;;;0.43;0.32;;;;;;;1.15;100.00;100319.22;5050600;28;20041;-82
2022/04/01 06:27:22;;;;;;;0.30;0.30;;;;;;;1.15;100.00;100329.13;5051558;28;20429;-81
2022/04/01 06:30:05;;;;;;;0.30;0.30;;;;;;;1.28;100.00;100338.84;5047442;28;20056;-81
2022/04/01 06:32:41;;;;;;;0.30;0.30;;;;;;;1.36;100.00;100335.84;5037330;28;20541;-82
2022/04/01 06:35:18;;;;;;;0.40;0.40;;;;;;;1.25;100.00;100337.44;5064035;28;20059;-81
2022/04/01 06:38:35;;;;;;;0.40;0.40;;;;;;;1.30;100.00;100334.91;5040794;28;20696;-80
2022/04/01 06:41:13;;;;;;;0.38;0.38;;;;;;;1.39;100.00;100353.34;5051646;28;20041;-80
2022/04/01 06:43:55;;;;;;;0.40;0.40;;;;;;;1.44;100.00;100348.94;5048041;28;20053;-79
2022/04/01 06:46:42;;;;;;;0.30;0.30;;;;;;;1.46;100.00;100346.84;5045772;28;20120;-81
2022/04/01 06:49:17;;;;;;;0.70;0.30;;;;;;;1.43;100.00;100344.63;5051467;28;20060;-80
2022/04/01 06:52:08;;;;;;;0.40;0.40;;;;;;;1.51;100.00;100352.34;5056225;28;20053;-82
2022/04/01 06:55:00;;;;;;;0.40;0.40;;;;;;;1.62;100.00;100356.13;5052470;28;20055;-80
2022/04/01 06:57:56;;;;;;;0.30;0.30;;;;;;;1.56;100.00;100362.41;5046042;28;20053;-80
2022/04/01 07:00:42;;;;;;;0.30;0.30;;;;;;;1.70;100.00;100360.34;5046494;28;20045;-82
2022/04/01 07:03:17;;;;;;;0.68;0.38;;;;;;;1.78;100.00;100365.41;5047599;28;20060;-80
2022/04/01 07:05:51;;;;;;;0.40;0.40;;;;;;;1.71;100.00;100372.69;5046626;28;20405;-82
2022/04/01 07:08:21;;;;;;;0.30;0.30;;;;;;;1.70;100.00;100376.44;5048749;28;20045;-82
2022/04/01 07:10:49;;;;;;;0.30;0.30;;;;;;;1.75;100.00;100371.19;5056408;28;20073;-79
2022/04/01 07:13:18;;;;;;;0.30;0.30;;;;;;;1.94;100.00;100382.69;5049618;28;20087;-78
2022/04/01 07:15:53;;;;;;;0.47;0.40;;;;;;;1.97;100.00;100378.72;5044568;28;20493;-79
2022/04/01 07:18:26;;;;;;;0.28;0.28;;;;;;;2.13;100.00;100374.56;5053324;28;20041;-80
2022/04/01 07:20:59;;;;;;;0.25;0.25;;;;;;;2.14;100.00;100386.91;5042424;28;20046;-80
2022/04/01 07:23:32;;;;;;;0.40;0.40;;;;;;;2.06;100.00;100374.69;5044590;28;20060;-81
2022/04/01 07:26:01;;;;;;;0.30;0.30;;;;;;;1.95;100.00;100384.34;5047289;28;20049;-80
2022/04/01 07:28:29;;;;;;;0.30;0.30;;;;;;;2.09;100.00;100394.88;5049900;28;20056;-80
2022/04/01 07:32:29;;;;;;;0.30;0.30;;;;;;;2.13;100.00;100394.16;5054515;28;20044;-79
2022/04/01 07:33:57;;;;;;;0.30;0.30;;;;;;;2.34;100.00;100389.28;5062087;28;20053;-80
2022/04/01 07:36:25;;;;;;;0.30;0.30;;;;;;;2.23;100.00;100395.47;5049008;28;20049;-81
2022/04/01 07:38:58;;;;;;;0.85;0.30;;;;;;;2.27;100.00;100396.66;5048563;28;20120;-81
2022/04/01 07:41:35;;;;;;;0.30;0.30;;;;;;;2.38;100.00;100402.03;5040108;28;20060;-81
2022/04/01 07:44:08;;;;;;;0.30;0.30;;;;;;;2.42;100.00;100413.13;5040886;28;20067;-81
2022/04/01 07:46:37;;;;;;;0.30;0.30;;;;;;;2.21;100.00;100380.41;5035371;28;20061;-81
2022/04/01 07:49:11;;;;;;;0.32;0.32;;;;;;;2.41;100.00;100403.44;5040470;28;20053;-81
2022/04/01 07:51:39;;;;;;;1.95;0.40;;;;;;;2.43;100.00;100398.66;5036317;28;20053;-80
2022/04/01 07:54:12;;;;;;;0.40;0.40;;;;;;;2.39;100.00;100410.91;5030264;28;20060;-81
2022/04/01 07:56:46;;;;;;;0.30;0.30;;;;;;;2.29;100.00;100399.91;5033461;28;20052;-79
2022/04/01 07:59:21;;;;;;;0.30;0.30;;;;;;;2.38;100.00;100406.59;5039363;28;20064;-79
2022/04/01 08:01:50;;;;;;;0.30;0.30;;;;;;;2.55;100.00;100414.75;5037407;28;20049;-80
2022/04/01 08:04:25;;;;;;;0.47;0.30;;;;;;;2.69;100.00;100402.75;5032695;28;20064;-80
2022/04/01 08:06:53;;;;;;;0.63;0.40;;;;;;;2.65;100.00;100401.59;5031594;28;20072;-80
2022/04/01 08:09:22;;;;;;;0.30;0.30;;;;;;;2.73;100.00;100405.75;5030778;28;20067;-82
2022/04/01 08:11:56;;;;;;;0.30;0.30;;;;;;;2.96;100.00;100410.31;5032682;28;20052;-81
2022/04/01 08:14:29;;;;;;;0.20;0.20;;;;;;;2.84;100.00;100406.81;5029473;28;20064;-80
2022/04/01 08:17:04;;;;;;;0.20;0.20;;;;;;;2.84;100.00;100412.19;5032174;28;20057;-81
2022/04/01 08:19:32;;;;;;;0.22;0.22;;;;;;;3.09;100.00;100409.22;5037170;28;20060;-81
2022/04/01 08:22:06;;;;;;;0.30;0.30;;;;;;;3.16;100.00;100401.88;5029961;28;20120;-81
2022/04/01 08:24:40;;;;;;;0.30;0.30;;;;;;;2.76;100.00;100405.28;5031960;28;20063;-80
2022/04/01 08:27:14;;;;;;;0.40;0.30;;;;;;;2.97;100.00;100419.19;5034454;28;20083;-80
2022/04/01 08:29:47;;;;;;;0.28;0.28;;;;;;;2.67;100.00;100407.53;5029273;28;20061;-80
2022/04/01 08:32:22;;;;;;;0.28;0.28;;;;;;;2.81;100.00;100405.41;5034522;28;20057;-83
2022/04/01 08:34:55;;;;;;;0.30;0.30;;;;;;;3.14;100.00;100417.41;5032517;28;20060;-80
2022/04/01 08:37:29;;;;;;;0.30;0.30;;;;;;;3.15;100.00;100413.69;5034568;28;21648;-81
2022/04/01 08:39:58;;;;;;;0.30;0.30;;;;;;;2.98;100.00;100416.25;5031219;28;20045;-80
2022/04/01 08:42:27;;;;;;;0.30;0.30;;;;;;;3.15;100.00;100419.06;5033610;28;20053;-80
2022/04/01 08:44:56;;;;;;;0.30;0.30;;;;;;;3.22;100.00;100435.88;5035437;28;20057;-80
2022/04/01 08:47:30;;;;;;;0.30;0.30;;;;;;;3.40;100.00;100426.00;5027883;28;20064;-80
2022/04/01 08:50:04;;;;;;;0.40;0.35;;;;;;;3.46;100.00;100429.63;5030829;28;20059;-80
2022/04/01 08:52:32;;;;;;;0.30;0.30;;;;;;;3.51;100.00;100427.03;5035001;28;20049;-81
2022/04/01 08:55:04;;;;;;;0.30;0.30;;;;;;;3.50;100.00;100431.59;5033407;28;20421;-80
2022/04/01 08:57:38;;;;;;;0.30;0.30;;;;;;;3.39;100.00;100446.69;5034423;28;20876;-80
2022/04/01 09:00:36;;;;;;;0.20;0.20;;;;;;;3.13;100.00;100448.03;5036064;28;20065;-79
2022/04/01 09:03:12;;;;;;;0.30;0.30;;;;;;;3.44;100.00;100445.16;5041330;28;20067;-80
2022/04/01 09:05:47;;;;;;;0.40;0.40;;;;;;;3.31;100.00;100427.44;5040288;28;20057;-80
2022/04/01 09:08:24;;;;;;;0.30;0.20;;;;;;;3.70;100.00;100441.09;5033051;28;20194;-80
2022/04/01 09:10:55;;;;;;;0.20;0.20;;;;;;;3.22;100.00;100438.56;5035550;28;20045;-81
2022/04/01 09:13:30;;;;;;;0.30;0.30;;;;;;;3.36;100.00;100441.81;5036149;28;20059;-79
2022/04/01 09:16:01;;;;;;;0.20;0.20;;;;;;;3.43;100.00;100443.56;5036535;28;20071;-80
2022/04/01 09:18:42;;;;;;;0.30;0.30;;;;;;;3.24;100.00;100422.19;5033836;28;20662;-79
2022/04/01 09:21:12;;;;;;;0.20;0.20;;;;;;;3.62;100.00;100431.56;5037738;28;20060;-81
2022/04/01 09:23:47;;;;;;;0.20;0.20;;;;;;;3.78;100.00;100446.09;5032617;28;20049;-80
2022/04/01 09:26:20;;;;;;;0.20;0.20;;;;;;;3.74;99.48;100453.88;5035098;28;20057;-80
2022/04/01 09:28:53;;;;;;;;;;;;;;;3.84;100.00;100447.84;5034759;28;20073;-80
2022/04/01 09:31:24;;;;;;;0.30;0.30;;;;;;;3.52;97.03;100461.78;5035862;28;19975;-80
2022/04/01 09:33:55;;;;;;;0.22;0.20;;;;;;;3.77;100.00;100449.88;5040500;28;20053;-81
2022/04/01 09:36:26;;;;;;;0.20;0.20;;;;;;;3.81;100.00;100442.13;5039984;28;20052;-81
2022/04/01 09:39:01;;;;;;;0.20;0.20;;;;;;;3.65;94.70;100432.97;5037400;28;20061;-80
2022/04/01 09:41:38;;;;;;;0.20;0.20;;;;;;;3.74;97.91;100453.88;5034284;28;20053;-79
2022/04/01 09:44:09;;;;;;;0.30;0.30;;;;;;;3.65;99.10;100459.88;5038332;28;20057;-80
2022/04/01 09:46:44;;;;;;;0.20;0.20;;;;;;;4.00;99.28;100440.84;5037190;28;20052;-80
2022/04/01 09:49:28;;;;;;;0.20;0.20;;;;;;;3.79;92.96;100425.41;5033850;28;20048;-79
2022/04/01 09:51:58;;;;;;;0.20;0.20;;;;;;;3.50;90.69;100423.50;5034529;28;20068;-80
2022/04/01 09:54:27;;;;;;;0.30;0.30;;;;;;;3.70;94.47;100454.56;5037187;28;20045;-81
2022/04/01 09:56:56;;;;;;;0.20;0.20;;;;;;;3.64;87.15;100460.91;5034859;28;20071;-81
2022/04/01 09:59:25;;;;;;;0.22;0.22;;;;;;;3.93;98.07;100459.03;5037784;28;20053;-81
2022/04/01 10:01:54;;;;;;;0.30;0.30;;;;;;;3.88;84.71;100442.78;5034141;28;20056;-80
2022/04/01 10:04:23;;;;;;;0.20;0.20;;;;;;;4.25;96.76;100455.84;5044261;28;20524;-80
2022/04/01 10:06:57;;;;;;;0.30;0.30;;;;;;;4.06;81.15;100444.47;5034740;28;21079;-82
2022/04/01 10:09:32;;;;;;;0.20;0.20;;;;;;;3.88;83.26;100443.63;5034039;28;20053;-81
2022/04/01 10:12:03;;;;;;;0.20;0.20;;;;;;;4.11;89.42;100441.88;5049121;28;20052;-82
2022/04/01 10:14:32;;;;;;;0.28;0.28;;;;;;;4.01;80.38;100441.69;5031528;28;20071;-81
2022/04/01 10:17:01;;;;;;;0.30;0.30;;;;;;;3.92;82.03;100435.88;5033341;28;20057;-80
2022/04/01 10:19:34;;;;;;;0.20;0.20;;;;;;;4.11;87.72;100433.78;5038333;28;20068;-80
2022/04/01 10:22:07;;;;;;;0.25;0.25;;;;;;;4.00;83.89;100434.66;5033856;28;20057;-81
2022/04/01 10:24:42;;;;;;;0.20;0.20;;;;;;;3.95;82.63;100431.88;5037281;28;20056;-82
2022/04/01 10:27:23;;;;;;;0.20;0.20;;;;;;;4.04;81.73;100435.81;5036820;28;20048;-80
2022/04/01 10:29:55;;;;;;;0.30;0.30;;;;;;;4.20;72.92;100437.72;5031379;28;20059;-80
2022/04/01 10:32:30;;;;;;;0.20;0.20;;;;;;;4.02;77.20;100449.53;5030104;28;20067;-81
2022/04/01 10:35:07;;;;;;;0.20;0.20;;;;;;;4.05;85.21;100445.53;5031496;28;20497;-80
2022/04/01 10:37:36;;;;;;;0.30;0.30;;;;;;;4.20;85.27;100448.50;5036499;28;20056;-80
2022/04/01 10:40:17;;;;;;;0.30;0.30;;;;;;;4.38;75.89;100449.34;5033868;28;20742;-81
2022/04/01 10:42:50;;;;;;;0.20;0.20;;;;;;;4.30;73.56;100442.47;5034189;28;20056;-82
2022/04/01 10:45:24;;;;;;;0.30;0.30;;;;;;;4.41;80.69;100440.75;5035154;28;20049;-80
2022/04/01 10:54:00;;;;;;;0.10;0.10;;;;;;;4.05;74.17;100461.69;5031012;28;20111;-80
2022/04/01 10:56:37;;;;;;;0.22;0.20;;;;;;;4.01;75.49;100439.81;5031678;28;20072;-81
2022/04/01 10:59:11;;;;;;;;;;;;;;;4.22;75.69;100464.41;5034233;28;20048;-80
2022/04/01 11:01:43;;;;;;;0.20;0.20;;;;;;;4.50;76.79;100452.78;5036216;28;19932;-80
2022/04/01 11:04:27;;;;;;;0.20;0.20;;;;;;;4.65;72.60;100452.16;5036832;28;20053;-80
2022/04/01 11:07:05;;;;;;;0.20;0.20;;;;;;;4.51;72.26;100456.28;5029793;28;20091;-81
2022/04/01 11:09:35;;;;;;;0.20;0.20;;;;;;;4.50;70.42;100433.91;5040020;28;20053;-80
2022/04/01 11:12:31;;;;;;;0.28;0.28;;;;;;;4.89;73.22;100465.50;5037787;28;20049;-80
2022/04/01 11:15:21;;;;;;;0.20;0.20;;;;;;;4.47;70.74;100468.59;5029337;28;20057;-81
2022/04/01 11:18:19;;;;;;;0.30;0.30;;;;;;;4.45;67.25;100468.84;5026629;28;20065;-80
2022/04/01 11:20:57;;;;;;;0.20;0.20;;;;;;;4.85;70.75;100464.34;5032251;28;20053;-80
2022/04/01 11:23:26;;;;;;;0.20;0.20;;;;;;;4.65;68.33;100464.84;5028323;28;20052;-81
2022/04/01 11:26:00;;;;;;;0.20;0.20;;;;;;;4.25;69.46;100467.44;5032825;28;20076;-80
2022/04/01 11:28:30;;;;;;;0.22;0.22;;;;;;;4.46;83.24;100464.28;5034075;28;20049;-81
2022/04/01 11:31:10;;;;;;;0.20;0.20;;;;;;;4.71;83.87;100455.75;5025287;28;20474;-81
2022/04/01 11:34:00;;;;;;;0.30;0.30;;;;;;;4.68;77.89;100456.25;5027838;28;20426;-81
2022/04/01 11:36:30;;;;;;;0.30;0.25;;;;;;;4.39;96.94;100461.72;5032492;28;20048;-81
2022/04/01 11:39:09;;;;;;;0.25;0.25;;;;;;;4.33;100.00;100450.06;5028987;28;20052;-83
2022/04/01 11:41:51;;;;;;;0.20;0.20;;;;;;;4.12;100.00;100462.34;5030047;28;20057;-78
2022/04/01 11:44:19;;;;;;;0.20;0.20;;;;;;;3.92;100.00;100460.09;5029345;28;20053;-80
2022/04/01 11:46:58;;;;;;;0.30;0.30;;;;;;;3.76;100.00;100469.78;5033371;28;20064;-79
2022/04/01 11:49:31;;;;;;;0.52;0.30;;;;;;;3.43;100.00;100465.88;5029416;28;20052;-78
2022/04/01 11:52:05;;;;;;;0.52;0.30;;;;;;;3.39;100.00;100470.09;5027261;28;20057;-80
2022/04/01 11:54:35;;;;;;;0.20;0.20;;;;;;;3.47;100.00;100483.19;5027243;28;20064;-80
2022/04/01 11:57:03;;;;;;;0.30;0.30;;;;;;;3.49;100.00;100480.25;5032789;28;20729;-79
2022/04/01 11:59:36;;;;;;;0.30;0.30;;;;;;;3.32;100.00;100464.03;5027820;28;20504;-80
2022/04/01 12:02:10;;;;;;;0.30;0.30;;;;;;;3.63;100.00;100478.91;5030900;28;20045;-79
2022/04/01 12:04:43;;;;;;;0.30;0.30;;;;;;;3.76;100.00;100480.53;5028628;28;20045;-79
2022/04/01 12:10:04;;;;;;;0.45;0.30;;;;;;;3.19;100.00;100473.16;5023970;28;20061;-79
2022/04/01 12:12:33;;;;;;;0.20;0.20;;;;;;;3.29;100.00;100465.34;5023670;28;20055;-80
2022/04/01 12:15:06;;;;;;;0.20;0.20;;;;;;;3.19;100.00;100465.09;5029701;28;20500;-80
2022/04/01 12:17:48;;;;;;;0.20;0.20;;;;;;;3.25;100.00;100483.00;5030370;28;20795;-78
2022/04/01 12:20:21;;;;;;;0.30;0.30;;;;;;;3.13;100.00;100474.94;5044154;28;20083;-79
2022/04/01 12:22:54;;;;;;;0.38;0.30;;;;;;;3.26;100.00;100467.66;5024094;28;20084;-79
2022/04/01 12:25:33;;;;;;;0.47;0.22;;;;;;;3.37;100.00;100480.28;5028989;28;20064;-79